createdAt,value
2023-04-27T00:01:34.820Z,100.00
2023-04-27T00:04:14.506Z,100.00
2023-04-27T00:06:50.067Z,100.00
2023-04-27T00:09:28.096Z,100.00
2023-04-27T00:12:03.498Z,100.00
2023-04-27T00:14:35.159Z,100.00
2023-04-27T00:17:07.922Z,100.00
2023-04-27T00:19:34.982Z,100.00
2023-04-27T00:22:20.892Z,100.00
2023-04-27T00:24:50.916Z,100.00
2023-04-27T00:27:25.734Z,100.00
2023-04-27T00:29:58.843Z,100.00
2023-04-27T00:32:36.000Z,100.00
2023-04-27T00:35:15.594Z,100.00
2023-04-27T00:37:54.205Z,100.00
2023-04-27T00:40:35.029Z,100.00
2023-04-27T00:43:04.170Z,100.00
2023-04-27T00:45:43.650Z,100.00
2023-04-27T00:48:16.397Z,100.00
2023-04-27T00:50:54.108Z,100.00
2023-04-27T00:53:31.587Z,100.00
2023-04-27T00:56:21.887Z,100.00
2023-04-27T00:59:03.021Z,100.00
2023-04-27T01:01:43.892Z,100.00
2023-04-27T01:04:23.286Z,100.00
2023-04-27T01:06:57.143Z,100.00
2023-04-27T01:09:32.642Z,100.00
2023-04-27T01:12:12.882Z,100.00
2023-04-27T01:14:46.008Z,100.00
2023-04-27T01:17:22.114Z,100.00
2023-04-27T01:20:02.431Z,100.00
2023-04-27T01:22:39.946Z,100.00
2023-04-27T01:25:12.860Z,100.00
2023-04-27T01:27:56.541Z,100.00
2023-04-27T01:30:30.863Z,100.00
2023-04-27T01:33:04.650Z,100.00
2023-04-27T01:35:46.921Z,100.00
2023-04-27T01:38:22.395Z,100.00
2023-04-27T01:40:50.061Z,100.00
2023-04-27T01:43:28.858Z,100.00
2023-04-27T01:46:05.070Z,100.00
2023-04-27T01:48:45.978Z,100.00
2023-04-27T01:51:16.285Z,100.00
2023-04-27T01:53:53.443Z,100.00
2023-04-27T01:56:25.063Z,100.00
2023-04-27T01:58:57.727Z,100.00
2023-04-27T02:01:40.968Z,100.00
2023-04-27T02:04:13.378Z,100.00
2023-04-27T02:06:51.194Z,100.00
2023-04-27T02:09:27.778Z,100.00
2023-04-27T02:12:00.658Z,100.00
2023-04-27T02:14:33.804Z,100.00
2023-04-27T02:17:09.031Z,100.00
2023-04-27T02:19:41.249Z,100.00
2023-04-27T02:22:19.692Z,100.00
2023-04-27T02:25:05.767Z,100.00
2023-04-27T02:27:32.736Z,100.00
2023-04-27T02:30:14.970Z,100.00
2023-04-27T02:32:55.390Z,100.00
2023-04-27T02:35:33.687Z,100.00
2023-04-27T02:38:06.878Z,100.00
2023-04-27T02:40:41.089Z,100.00
2023-04-27T02:43:13.884Z,100.00
2023-04-27T02:45:49.119Z,100.00
2023-04-27T02:48:19.140Z,100.00
2023-04-27T02:50:51.895Z,100.00
2023-04-27T02:53:18.945Z,100.00
2023-04-27T02:55:54.139Z,100.00
2023-04-27T02:58:21.473Z,100.00
2023-04-27T03:00:59.805Z,100.00
2023-04-27T03:03:32.650Z,100.00
2023-04-27T03:06:04.438Z,100.00
2023-04-27T03:08:44.027Z,100.00
2023-04-27T03:11:24.626Z,100.00
2023-04-27T03:14:02.052Z,100.00
2023-04-27T03:16:29.911Z,100.00
2023-04-27T03:18:59.152Z,100.00
2023-04-27T03:21:31.297Z,100.00
2023-04-27T03:24:03.674Z,100.00
2023-04-27T03:26:39.296Z,100.00
2023-04-27T03:29:12.031Z,100.00
2023-04-27T03:31:44.909Z,100.00
2023-04-27T03:34:14.857Z,100.00
2023-04-27T03:36:57.570Z,100.00
2023-04-27T03:39:34.864Z,100.00
2023-04-27T03:42:12.902Z,100.00
2023-04-27T03:44:50.915Z,100.00
2023-04-27T03:47:25.898Z,100.00
2023-04-27T03:50:13.951Z,100.00
2023-04-27T03:52:43.882Z,100.00
2023-04-27T03:55:19.498Z,100.00
2023-04-27T03:57:46.884Z,100.00
2023-04-27T04:00:18.512Z,100.00
2023-04-27T04:02:52.932Z,100.00
2023-04-27T04:05:30.599Z,100.00
2023-04-27T04:08:06.415Z,100.00
2023-04-27T04:10:44.484Z,100.00
2023-04-27T04:13:14.039Z,100.00
2023-04-27T04:15:49.239Z,100.00
2023-04-27T04:18:25.069Z,100.00
2023-04-27T04:20:57.663Z,100.00
2023-04-27T04:23:30.861Z,100.00
2023-04-27T04:26:05.840Z,100.00
2023-04-27T04:28:46.309Z,100.00
2023-04-27T04:31:18.762Z,100.00
2023-04-27T04:34:00.253Z,100.00
2023-04-27T04:36:38.562Z,100.00
2023-04-27T04:39:07.668Z,100.00
2023-04-27T04:41:38.842Z,100.00
2023-04-27T04:44:11.055Z,100.00
2023-04-27T04:46:43.138Z,100.00
2023-04-27T04:49:18.615Z,100.00
2023-04-27T04:51:56.933Z,100.00
2023-04-27T04:54:31.683Z,100.00
2023-04-27T04:57:04.713Z,100.00
2023-04-27T04:59:42.867Z,100.00
2023-04-27T05:02:20.885Z,100.00
2023-04-27T05:07:26.953Z,100.00
2023-04-27T05:09:54.094Z,100.00
2023-04-27T05:12:28.607Z,100.00
2023-04-27T05:15:01.153Z,100.00
2023-04-27T05:17:39.092Z,100.00
2023-04-27T05:20:15.965Z,100.00
2023-04-27T05:23:01.439Z,100.00
2023-04-27T05:25:40.766Z,100.00
2023-04-27T05:28:20.036Z,100.00
2023-04-27T05:30:57.167Z,97.89
2023-04-27T05:33:47.853Z,95.70
2023-04-27T05:36:23.299Z,91.47
2023-04-27T05:38:57.812Z,88.92
2023-04-27T05:41:36.173Z,87.32
2023-04-27T05:44:17.134Z,84.03
2023-04-27T05:46:56.311Z,84.03
2023-04-27T05:49:37.878Z,84.46
2023-04-27T05:52:17.860Z,84.78
2023-04-27T05:54:58.480Z,84.46
2023-04-27T05:57:42.366Z,85.24
2023-04-27T06:00:22.612Z,82.40
2023-04-27T06:03:00.374Z,77.68
2023-04-27T06:05:41.942Z,74.36
2023-04-27T06:08:25.304Z,73.79
2023-04-27T06:10:58.202Z,74.62
2023-04-27T06:13:30.505Z,68.81
2023-04-27T06:16:11.808Z,67.02
2023-04-27T06:18:50.446Z,61.91
2023-04-27T06:21:32.115Z,62.30
2023-04-27T06:24:19.228Z,61.93
2023-04-27T06:27:03.271Z,57.60
2023-04-27T06:29:36.016Z,57.21
2023-04-27T06:32:17.874Z,58.84
2023-04-27T06:35:01.018Z,56.37
2023-04-27T06:37:38.888Z,55.69
2023-04-27T06:40:12.082Z,53.52
2023-04-27T06:42:58.503Z,53.51
2023-04-27T06:45:44.796Z,51.38
2023-04-27T06:48:25.651Z,50.42
2023-04-27T06:51:08.147Z,49.71
2023-04-27T06:53:38.184Z,49.06
2023-04-27T06:56:23.643Z,49.64
2023-04-27T06:59:08.147Z,48.73
2023-04-27T07:01:40.883Z,48.23
2023-04-27T07:04:26.905Z,48.23
2023-04-27T07:07:09.603Z,49.45
2023-04-27T07:09:47.788Z,48.66
2023-04-27T07:12:23.647Z,48.49
2023-04-27T07:15:04.392Z,49.38
2023-04-27T07:17:44.751Z,49.26
2023-04-27T07:20:27.377Z,50.37
2023-04-27T07:23:09.473Z,49.68
2023-04-27T07:25:52.502Z,48.31
2023-04-27T07:28:30.733Z,49.12
2023-04-27T07:31:09.811Z,50.93
2023-04-27T07:33:48.078Z,48.31
2023-04-27T07:36:34.467Z,47.88
2023-04-27T07:39:16.948Z,46.84
2023-04-27T07:42:05.852Z,45.45
2023-04-27T07:44:44.277Z,45.75
2023-04-27T07:47:19.652Z,46.18
2023-04-27T07:50:01.002Z,45.02
2023-04-27T07:52:41.625Z,43.99
2023-04-27T07:55:31.853Z,42.41
2023-04-27T07:58:12.821Z,40.77
2023-04-27T08:00:56.184Z,45.12
2023-04-27T08:03:35.160Z,38.83
2023-04-27T08:06:08.306Z,40.08
2023-04-27T08:08:49.800Z,37.46
2023-04-27T08:11:19.666Z,37.69
2023-04-27T08:13:59.887Z,35.58
2023-04-27T08:16:33.145Z,36.32
2023-04-27T08:19:05.445Z,39.25
2023-04-27T08:21:47.288Z,36.55
2023-04-27T08:24:26.129Z,36.82
2023-04-27T08:27:11.807Z,38.99
2023-04-27T08:30:02.916Z,39.39
2023-04-27T08:32:44.658Z,38.24
2023-04-27T08:35:23.082Z,37.82
2023-04-27T08:38:09.649Z,37.30
2023-04-27T08:40:54.745Z,37.69
2023-04-27T08:43:45.233Z,41.07
2023-04-27T08:46:27.230Z,36.87
2023-04-27T08:49:16.509Z,38.04
2023-04-27T08:51:57.573Z,37.85
2023-04-27T08:54:36.666Z,37.74
2023-04-27T08:57:23.526Z,38.37
2023-04-27T09:00:23.533Z,36.66
2023-04-27T09:03:06.702Z,38.20
2023-04-27T09:06:03.424Z,36.54
2023-04-27T09:08:52.861Z,37.88
2023-04-27T09:11:41.554Z,37.14
2023-04-27T09:14:31.346Z,40.02
2023-04-27T09:17:18.044Z,36.97
2023-04-27T09:19:50.452Z,38.52
2023-04-27T09:22:45.225Z,36.96
2023-04-27T09:25:36.017Z,34.47
2023-04-27T09:28:16.846Z,35.28
2023-04-27T09:31:05.148Z,34.63
2023-04-27T09:33:48.824Z,35.88
2023-04-27T09:36:30.980Z,37.55
2023-04-27T09:39:12.560Z,38.23
2023-04-27T09:41:55.820Z,37.39
2023-04-27T09:44:43.767Z,37.26
2023-04-27T09:47:21.874Z,36.24
2023-04-27T09:50:07.139Z,35.07
2023-04-27T09:52:45.861Z,34.53
2023-04-27T09:55:41.936Z,35.88
2023-04-27T09:58:38.405Z,35.49
2023-04-27T10:01:24.265Z,33.75
2023-04-27T10:04:35.089Z,35.35
2023-04-27T10:07:13.823Z,32.73
2023-04-27T10:10:00.240Z,34.63
2023-04-27T10:12:41.650Z,34.37
2023-04-27T10:15:29.492Z,32.92
2023-04-27T10:18:11.545Z,31.75
2023-04-27T10:21:12.249Z,32.77
2023-04-27T10:23:57.368Z,34.14
2023-04-27T10:26:49.818Z,35.66
2023-04-27T10:29:40.363Z,35.58
2023-04-27T10:32:32.870Z,36.59
2023-04-27T10:35:22.410Z,35.41
2023-04-27T10:38:28.310Z,34.99
2023-04-27T10:41:12.613Z,33.79
2023-04-27T10:43:50.271Z,34.97
2023-04-27T10:46:28.942Z,35.83
2023-04-27T10:49:14.977Z,33.71
2023-04-27T10:52:05.251Z,37.99
2023-04-27T10:54:49.811Z,35.02
2023-04-27T10:57:31.542Z,35.72
2023-04-27T11:00:21.225Z,34.41
2023-04-27T11:03:00.794Z,36.35
2023-04-27T11:05:46.721Z,35.97
2023-04-27T11:08:31.831Z,36.82
2023-04-27T11:11:09.764Z,35.83
2023-04-27T11:13:49.538Z,32.57
2023-04-27T11:16:33.107Z,33.70
2023-04-27T11:19:14.153Z,36.55
2023-04-27T11:21:53.156Z,35.99
2023-04-27T11:24:29.383Z,36.43
2023-04-27T11:27:07.517Z,35.25
2023-04-27T11:29:51.815Z,33.38
2023-04-27T11:32:27.120Z,35.10
2023-04-27T11:35:07.474Z,36.63
2023-04-27T11:37:58.342Z,33.95
2023-04-27T11:40:45.557Z,33.52
2023-04-27T11:43:25.677Z,32.69
2023-04-27T11:46:17.913Z,33.51
2023-04-27T11:49:16.973Z,32.06
2023-04-27T11:51:59.252Z,33.17
2023-04-27T11:54:56.464Z,31.26
2023-04-27T11:57:36.168Z,33.50
2023-04-27T12:00:15.336Z,32.64
2023-04-27T12:03:04.934Z,30.73
2023-04-27T12:05:52.976Z,33.67
2023-04-27T12:08:31.168Z,34.12
2023-04-27T12:11:11.971Z,32.63
2023-04-27T12:14:04.288Z,32.82
2023-04-27T12:16:44.498Z,34.26
2023-04-27T12:19:34.798Z,34.08
2023-04-27T12:22:10.843Z,32.01
2023-04-27T12:24:48.596Z,31.31
2023-04-27T12:27:32.833Z,32.01
2023-04-27T12:30:14.630Z,33.35
2023-04-27T12:32:52.978Z,32.63
2023-04-27T12:35:32.101Z,33.82
2023-04-27T12:38:07.256Z,31.93
2023-04-27T12:40:42.897Z,31.34
2023-04-27T12:43:23.619Z,29.17
2023-04-27T12:45:58.913Z,29.67
2023-04-27T12:48:36.565Z,31.94
2023-04-27T12:51:17.741Z,30.20
2023-04-27T12:54:02.769Z,31.84
2023-04-27T12:56:44.098Z,31.69
2023-04-27T12:59:24.918Z,32.24
2023-04-27T13:02:06.130Z,30.80
2023-04-27T13:04:45.053Z,31.74
2023-04-27T13:07:23.348Z,32.19
2023-04-27T13:10:07.935Z,32.05
2023-04-27T13:12:42.463Z,30.57
2023-04-27T13:15:20.216Z,29.84
2023-04-27T13:18:00.396Z,31.48
2023-04-27T13:20:42.939Z,30.43
2023-04-27T13:23:20.564Z,32.54
2023-04-27T13:26:04.166Z,31.88
2023-04-27T13:28:39.162Z,30.59
2023-04-27T13:31:22.946Z,30.74
2023-04-27T13:33:58.767Z,33.27
2023-04-27T13:36:28.966Z,31.20
2023-04-27T13:39:12.054Z,33.69
2023-04-27T13:41:48.879Z,32.53
2023-04-27T13:44:29.639Z,33.21
2023-04-27T13:47:11.372Z,34.11
2023-04-27T13:49:49.147Z,37.33
2023-04-27T13:52:27.800Z,36.15
2023-04-27T13:55:03.931Z,35.08
2023-04-27T13:57:47.822Z,29.46
2023-04-27T14:00:45.695Z,30.14
2023-04-27T14:03:23.584Z,29.65
2023-04-27T14:06:01.929Z,30.76
2023-04-27T14:08:41.982Z,30.31
2023-04-27T14:11:23.469Z,31.31
2023-04-27T14:13:58.676Z,30.55
2023-04-27T14:16:39.964Z,30.14
2023-04-27T14:19:18.774Z,30.09
2023-04-27T14:21:59.611Z,29.72
2023-04-27T14:24:41.256Z,36.42
2023-04-27T14:27:19.806Z,34.24
2023-04-27T14:29:58.417Z,33.83
2023-04-27T14:32:45.341Z,29.04
2023-04-27T14:35:23.966Z,30.96
2023-04-27T14:38:11.323Z,29.01
2023-04-27T14:40:57.750Z,28.25
2023-04-27T14:43:40.447Z,28.58
2023-04-27T14:46:22.396Z,29.02
2023-04-27T14:49:07.762Z,29.04
2023-04-27T14:51:51.371Z,28.65
2023-04-27T14:54:29.644Z,31.99
2023-04-27T14:57:13.217Z,32.10
2023-04-27T14:59:55.761Z,31.75
2023-04-27T15:02:36.997Z,31.84
2023-04-27T15:05:17.783Z,31.66
2023-04-27T15:07:55.072Z,32.05
2023-04-27T15:10:35.521Z,32.14
2023-04-27T15:13:16.253Z,32.35
2023-04-27T15:15:47.630Z,29.78
2023-04-27T15:18:23.486Z,30.07
2023-04-27T15:21:04.375Z,31.21
2023-04-27T15:23:38.075Z,30.66
2023-04-27T15:26:23.446Z,30.70
2023-04-27T15:29:02.562Z,31.10
2023-04-27T15:31:43.552Z,31.19
2023-04-27T15:34:22.372Z,30.27
2023-04-27T15:37:02.858Z,31.14
2023-04-27T15:39:41.277Z,31.36
2023-04-27T15:42:16.637Z,29.76
2023-04-27T15:45:08.021Z,30.58
2023-04-27T15:47:41.703Z,31.26
2023-04-27T15:50:18.084Z,32.17
2023-04-27T15:53:05.152Z,28.91
2023-04-27T15:55:42.303Z,29.33
2023-04-27T15:58:20.034Z,29.60
2023-04-27T16:00:56.856Z,28.26
2023-04-27T16:03:33.511Z,28.02
2023-04-27T16:06:06.472Z,26.77
2023-04-27T16:08:49.694Z,28.04
2023-04-27T16:11:29.958Z,27.40
2023-04-27T16:14:08.214Z,24.78
2023-04-27T16:16:46.959Z,25.17
2023-04-27T16:19:30.487Z,23.94
2023-04-27T16:22:10.947Z,23.45
2023-04-27T16:24:43.582Z,23.78
2023-04-27T16:27:28.053Z,23.80
2023-04-27T16:30:06.939Z,24.54
2023-04-27T16:32:47.807Z,21.98
2023-04-27T16:35:19.897Z,23.02
2023-04-27T16:37:58.862Z,23.85
2023-04-27T16:40:32.274Z,22.79
2023-04-27T16:43:05.064Z,22.84
2023-04-27T16:45:47.108Z,23.40
2023-04-27T16:48:28.380Z,24.20
2023-04-27T16:51:13.623Z,26.12
2023-04-27T16:53:49.339Z,26.66
2023-04-27T16:56:33.832Z,26.63
2023-04-27T16:59:07.694Z,28.12
2023-04-27T17:01:40.554Z,30.67
2023-04-27T17:04:19.026Z,29.45
2023-04-27T17:07:02.552Z,31.35
2023-04-27T17:09:45.702Z,32.77
2023-04-27T17:12:21.130Z,32.57
2023-04-27T17:15:02.164Z,34.52
2023-04-27T17:17:46.896Z,33.95
2023-04-27T17:20:22.893Z,36.89
2023-04-27T17:23:08.912Z,36.34
2023-04-27T17:25:51.001Z,38.21
2023-04-27T17:28:29.914Z,39.10
2023-04-27T17:31:05.477Z,39.73
2023-04-27T17:33:46.737Z,39.44
2023-04-27T17:36:19.367Z,41.71
2023-04-27T17:39:01.472Z,43.68
2023-04-27T17:41:37.192Z,44.87
2023-04-27T17:44:12.101Z,45.29
2023-04-27T17:46:54.958Z,45.77
2023-04-27T17:49:33.693Z,47.36
2023-04-27T17:52:11.331Z,48.39
2023-04-27T17:54:41.383Z,49.39
2023-04-27T17:57:22.236Z,49.10
2023-04-27T18:00:06.427Z,50.51
2023-04-27T18:02:52.046Z,51.42
2023-04-27T18:05:24.282Z,52.10
2023-04-27T18:08:06.790Z,53.53
2023-04-27T18:10:41.980Z,54.68
2023-04-27T18:13:17.321Z,55.93
2023-04-27T18:15:55.985Z,56.73
2023-04-27T18:18:36.385Z,56.54
2023-04-27T18:21:26.756Z,57.50
2023-04-27T18:24:05.587Z,58.18
2023-04-27T18:26:41.600Z,59.27
2023-04-27T18:29:24.207Z,61.01
2023-04-27T18:31:56.694Z,62.24
2023-04-27T18:34:39.845Z,62.77
2023-04-27T18:37:18.218Z,64.49
2023-04-27T18:39:55.847Z,65.41
2023-04-27T18:42:46.249Z,66.16
2023-04-27T18:45:29.012Z,66.70
2023-04-27T18:48:07.944Z,67.61
2023-04-27T18:50:40.766Z,68.28
2023-04-27T18:53:20.606Z,68.96
2023-04-27T18:55:56.549Z,70.11
2023-04-27T18:58:40.328Z,72.67
2023-04-27T19:01:20.017Z,73.87
2023-04-27T19:04:02.554Z,74.14
2023-04-27T19:06:38.557Z,75.18
2023-04-27T19:09:19.346Z,76.84
2023-04-27T19:12:05.680Z,77.46
2023-04-27T19:14:44.545Z,77.76
2023-04-27T19:17:26.281Z,79.47
2023-04-27T19:20:08.843Z,79.43
2023-04-27T19:22:52.853Z,80.03
2023-04-27T19:25:34.773Z,83.36
2023-04-27T19:28:13.245Z,82.51
2023-04-27T19:30:45.617Z,82.86
2023-04-27T19:33:20.902Z,83.75
2023-04-27T19:35:58.870Z,83.68
2023-04-27T19:38:42.094Z,83.31
2023-04-27T19:41:24.793Z,84.40
2023-04-27T19:44:05.528Z,84.65
2023-04-27T19:46:42.645Z,84.62
2023-04-27T19:49:20.922Z,85.00
2023-04-27T19:51:53.340Z,84.66
2023-04-27T19:54:33.894Z,83.97
2023-04-27T19:57:21.346Z,84.00
2023-04-27T19:59:59.145Z,85.23
2023-04-27T20:02:37.598Z,84.96
2023-04-27T20:05:22.263Z,85.17
2023-04-27T20:08:03.401Z,86.24
2023-04-27T20:10:44.000Z,86.26
2023-04-27T20:13:21.198Z,86.31
2023-04-27T20:15:58.348Z,87.71
2023-04-27T20:18:35.339Z,88.27
2023-04-27T20:21:09.344Z,88.91
2023-04-27T20:23:44.251Z,89.18
2023-04-27T20:26:24.619Z,89.58
2023-04-27T20:28:56.911Z,91.39
2023-04-27T20:31:32.877Z,92.94
2023-04-27T20:34:14.770Z,95.21
2023-04-27T20:36:58.077Z,97.12
2023-04-27T20:39:30.200Z,98.08
2023-04-27T20:42:08.573Z,98.95
2023-04-27T20:44:49.691Z,99.07
2023-04-27T20:47:24.874Z,99.72
2023-04-27T20:50:02.588Z,100.00
2023-04-27T20:52:41.796Z,100.00
2023-04-27T20:55:22.260Z,100.00
2023-04-27T20:57:58.401Z,100.00
2023-04-27T21:00:42.607Z,100.00
2023-04-27T21:03:13.125Z,100.00
2023-04-27T21:05:45.562Z,100.00
2023-04-27T21:08:23.204Z,100.00
2023-04-27T21:11:01.491Z,100.00
2023-04-27T21:13:36.857Z,100.00
2023-04-27T21:16:12.026Z,100.00
2023-04-27T21:18:57.106Z,100.00
2023-04-27T21:21:35.112Z,100.00
2023-04-27T21:24:13.488Z,100.00
2023-04-27T21:26:48.992Z,100.00
2023-04-27T21:29:18.784Z,100.00
2023-04-27T21:32:00.451Z,100.00
2023-04-27T21:34:46.940Z,100.00
2023-04-27T21:37:24.778Z,100.00
2023-04-27T21:40:02.604Z,100.00
2023-04-27T21:42:44.073Z,100.00
2023-04-27T21:45:27.318Z,100.00
2023-04-27T21:48:09.666Z,100.00
2023-04-27T21:50:42.117Z,100.00
2023-04-27T21:53:15.997Z,100.00
2023-04-27T21:55:57.806Z,100.00
2023-04-27T21:58:36.446Z,100.00
2023-04-27T22:01:15.356Z,100.00
2023-04-27T22:03:54.149Z,100.00
2023-04-27T22:06:35.407Z,100.00
2023-04-27T22:09:12.634Z,100.00
2023-04-27T22:11:53.890Z,100.00
2023-04-27T22:14:32.627Z,100.00
2023-04-27T22:17:12.674Z,100.00
2023-04-27T22:19:53.786Z,100.00
2023-04-27T22:22:32.349Z,100.00
2023-04-27T22:25:14.368Z,100.00
2023-04-27T22:27:52.763Z,100.00
2023-04-27T22:30:36.794Z,100.00
2023-04-27T22:33:14.733Z,100.00
2023-04-27T22:35:44.875Z,100.00
2023-04-27T22:38:14.480Z,100.00
2023-04-27T22:40:54.746Z,100.00
2023-04-27T22:43:27.907Z,100.00
2023-04-27T22:46:08.190Z,100.00
2023-04-27T22:48:46.386Z,100.00
2023-04-27T22:51:27.868Z,100.00
2023-04-27T22:54:06.327Z,100.00
2023-04-27T22:56:46.100Z,100.00
2023-04-27T22:59:23.185Z,100.00
2023-04-27T23:02:06.550Z,100.00
2023-04-27T23:04:44.781Z,100.00
2023-04-27T23:07:23.434Z,100.00
2023-04-27T23:10:02.873Z,100.00
2023-04-27T23:12:40.804Z,100.00
2023-04-27T23:15:22.435Z,100.00
2023-04-27T23:18:01.684Z,100.00
2023-04-27T23:20:36.951Z,100.00
2023-04-27T23:23:06.747Z,100.00
2023-04-27T23:25:44.445Z,100.00
2023-04-27T23:28:20.914Z,100.00
2023-04-27T23:30:57.696Z,100.00
2023-04-27T23:33:38.926Z,100.00
2023-04-27T23:36:17.328Z,100.00
2023-04-27T23:38:52.364Z,100.00
2023-04-27T23:41:30.051Z,100.00
2023-04-27T23:44:05.480Z,100.00
2023-04-27T23:46:46.718Z,100.00
2023-04-27T23:49:21.944Z,100.00
2023-04-27T23:52:03.722Z,100.00
2023-04-27T23:54:33.758Z,100.00
2023-04-27T23:57:11.705Z,100.00
2023-04-27T23:59:50.280Z,100.00
